Time;durP1;ratioP1;P1;durP2;ratioP2;P2;SDS_P1;SDS_P2;PMS_P1;PMS_P2;Temp;Humidity;BMP_temperature;BMP_pressure;BME280_temperature;BME280_humidity;BME280_pressure;Samples;Min_cycle;Max_cycle;Signal;HPM_P1;HPM_P2
2022/01/12 00:00:49;;;;;;;10.20;7.00;;;;;;;-5.05;73.15;98340.17;109820;1250;69231;-68
2022/01/12 00:03:19;;;;;;;14.20;8.20;;;;;;;-5.06;73.12;98343.91;110007;1250;59733;-67
2022/01/12 00:05:49;;;;;;;12.00;6.70;;;;;;;-5.07;73.00;98345.61;109919;1250;59757;-67
2022/01/12 00:08:19;;;;;;;10.80;6.20;;;;;;;-5.11;72.89;98341.52;110121;1249;71168;-68
2022/01/12 00:10:48;;;;;;;9.70;6.30;;;;;;;-5.12;72.77;98344.23;110191;1249;67659;-66
2022/01/12 00:13:18;;;;;;;10.30;6.00;;;;;;;-5.14;72.65;98348.48;110129;1250;69354;-67
2022/01/12 00:15:48;;;;;;;12.70;7.10;;;;;;;-5.17;72.62;98348.79;110145;1248;59733;-68
2022/01/12 00:18:17;;;;;;;12.90;8.60;;;;;;;-5.21;72.58;98353.03;109941;1250;59732;-67
2022/01/12 00:20:47;;;;;;;12.40;7.10;;;;;;;-5.27;72.60;98352.83;110006;1250;71583;-66
2022/01/12 00:23:18;;;;;;;;;;;;;;;-5.30;72.48;98351.63;110081;1248;68412;-65
2022/01/12 00:26:01;;;;;;;8.90;5.50;;;;;;;-5.36;72.45;98352.44;110080;1247;69415;-70
2022/01/12 00:34:12;;;;;;;11.90;7.60;;;;;;;-5.38;72.34;98374.86;110121;1249;70042;-68
2022/01/12 00:36:41;;;;;;;14.50;9.60;;;;;;;-5.36;72.13;98371.81;109966;1250;67864;-68
2022/01/12 00:39:10;;;;;;;12.60;7.10;;;;;;;-5.34;71.97;98373.02;109999;1250;69535;-67
2022/01/12 00:41:41;;;;;;;14.60;7.80;;;;;;;-5.31;71.72;98369.96;110119;1247;59753;-70
2022/01/12 00:44:21;;;;;;;9.90;6.20;;;;;;;-5.29;71.61;98368.45;110119;1249;59690;-69
2022/01/12 00:46:53;;;;;;;14.90;8.80;;;;;;;-5.27;71.41;98372.20;110171;1247;72894;-69
2022/01/12 00:49:22;;;;;;;12.00;7.20;;;;;;;-5.27;71.13;98373.05;110214;1247;67868;-69
2022/01/12 00:51:54;;;;;;;14.30;8.00;;;;;;;-5.25;71.24;98369.48;110239;1247;68734;-70
2022/01/12 00:54:25;;;;;;;15.50;8.40;;;;;;;-5.21;71.06;98372.23;110230;1247;59756;-69
2022/01/12 00:56:54;;;;;;;13.50;7.60;;;;;;;-5.21;70.77;98375.11;110146;1250;59641;-68
2022/01/12 00:59:24;;;;;;;11.30;6.40;;;;;;;-5.19;70.55;98375.80;110203;1248;70817;-68
2022/01/12 01:01:56;;;;;;;11.80;8.70;;;;;;;-5.17;70.18;98377.52;110167;1247;66965;-70
2022/01/12 01:04:26;;;;;;;;;;;;;;;-5.19;69.94;98376.48;110110;1247;69462;-69
2022/01/12 01:06:56;;;;;;;13.20;7.40;;;;;;;-5.20;70.08;98373.77;110019;1248;59749;-68
2022/01/12 01:09:26;;;;;;;11.90;7.30;;;;;;;-5.23;69.96;98372.56;110118;1247;59604;-68
2022/01/12 01:11:56;;;;;;;11.80;7.80;;;;;;;-5.28;69.44;98371.50;110157;1248;70589;-69
2022/01/12 01:14:44;;;;;;;9.30;6.40;;;;;;;-5.31;68.68;98373.88;109962;1250;67829;-68
2022/01/12 01:25:53;;;;;;;12.90;8.10;;;;;;;-5.27;68.55;98379.17;110023;1250;71508;-69
2022/01/12 01:28:23;;;;;;;10.90;7.20;;;;;;;-5.27;69.45;98380.71;110038;1249;68627;-70
2022/01/12 01:30:54;;;;;;;13.80;8.20;;;;;;;-5.25;69.86;98379.86;110018;1249;69500;-67
2022/01/12 01:33:27;;;;;;;14.10;7.80;;;;;;;-5.27;69.87;98383.77;109949;1250;59686;-68
2022/01/12 01:35:57;;;;;;;14.20;8.10;;;;;;;-5.28;70.34;98389.17;110027;1250;59736;-67
2022/01/12 01:38:27;;;;;;;19.70;12.70;;;;;;;-5.31;70.66;98383.73;110177;1248;70915;-68
2022/01/12 01:40:57;;;;;;;15.40;9.30;;;;;;;-5.35;71.42;98384.21;109966;1249;68683;-68
2022/01/12 01:54:32;;;;;;;11.10;7.40;;;;;;;-5.71;69.06;98391.27;109899;1249;67711;-67
2022/01/12 01:57:02;;;;;;;10.10;7.00;;;;;;;-5.79;69.06;98392.58;109743;1250;69468;-67
2022/01/12 01:59:32;;;;;;;14.40;7.20;;;;;;;-5.84;69.22;98396.10;109899;1249;59695;-66
2022/01/12 02:02:02;;;;;;;10.30;7.40;;;;;;;-5.91;69.09;98397.59;110093;1247;59668;-67
2022/01/12 02:04:32;;;;;;;;;;;;;;;-5.97;69.42;98396.20;109934;1249;70946;-65
2022/01/12 02:07:04;;;;;;;13.00;8.40;;;;;;;-6.04;69.81;98399.70;109869;1250;68755;-66
2022/01/12 02:09:37;;;;;;;11.40;7.00;;;;;;;-6.09;69.77;98403.91;109666;1251;69561;-67
2022/01/12 02:12:30;;;;;;;10.60;7.40;;;;;;;-6.15;69.97;98405.55;110002;1249;59698;-66
2022/01/12 02:15:11;;;;;;;14.50;7.70;;;;;;;-6.20;70.10;98408.91;109930;1250;59767;-67
2022/01/12 02:18:01;;;;;;;12.10;8.20;;;;;;;-6.25;70.36;98408.34;109957;1250;70764;-65
2022/01/12 02:40:34;;;;;;;11.40;7.80;;;;;;;-6.62;70.61;98413.55;110134;1248;59716;-66
2022/01/12 02:43:14;;;;;;;12.50;7.20;;;;;;;-6.67;70.61;98416.89;110230;1247;59676;-67
2022/01/12 02:53:57;;;;;;;12.30;7.50;;;;;;;-6.84;70.68;98422.95;109881;1250;59771;-68
2022/01/12 02:56:32;;;;;;;12.30;7.90;;;;;;;-6.89;70.80;98422.55;109850;1250;59740;-67
2022/01/12 02:59:02;;;;;;;10.60;7.20;;;;;;;-6.94;70.97;98429.28;109706;1251;71446;-67
2022/01/12 03:04:07;;;;;;;12.90;7.80;;;;;;;-7.01;71.22;98427.33;109992;1247;68661;-67
2022/01/12 03:06:39;;;;;;;11.00;6.40;;;;;;;-7.05;71.20;98433.71;110123;1247;59754;-65
2022/01/12 03:09:10;;;;;;;8.70;5.90;;;;;;;-7.08;71.08;98431.30;110007;1250;59702;-67
2022/01/12 03:11:40;;;;;;;11.50;5.90;;;;;;;-7.09;71.21;98434.16;110137;1247;71610;-67
2022/01/12 03:14:18;;;;;;;9.00;6.40;;;;;;;-7.14;71.55;98435.97;110202;1247;67806;-67
2022/01/12 03:16:48;;;;;;;11.70;6.80;;;;;;;-7.14;71.45;98436.29;109772;1250;69294;-66
2022/01/12 03:19:22;;;;;;;9.90;6.50;;;;;;;-7.18;71.50;98435.40;110065;1248;59764;-68
2022/01/12 03:21:52;;;;;;;13.30;8.00;;;;;;;-7.21;71.32;98434.68;109949;1248;59679;-66
2022/01/12 03:24:22;;;;;;;12.60;7.10;;;;;;;-7.26;71.77;98437.98;109894;1247;70590;-67
2022/01/12 03:26:52;;;;;;;14.90;7.50;;;;;;;-7.29;71.85;98433.38;109869;1247;68495;-67
2022/01/12 03:29:23;;;;;;;10.80;6.80;;;;;;;-7.33;71.87;98433.50;109686;1250;69333;-70
2022/01/12 03:31:56;;;;;;;8.90;5.80;;;;;;;-7.36;72.08;98429.38;110209;1247;59801;-67
2022/01/12 03:34:32;;;;;;;11.50;7.40;;;;;;;-7.40;72.07;98430.50;110212;1247;59667;-67
2022/01/12 03:39:35;;;;;;;12.40;6.90;;;;;;;-7.51;72.46;98434.92;110102;1249;68645;-67
2022/01/12 03:42:05;;;;;;;15.90;7.80;;;;;;;-7.55;72.64;98433.49;109942;1250;68646;-69
2022/01/12 03:44:35;;;;;;;11.10;7.50;;;;;;;-7.59;72.80;98433.78;110156;1250;59688;-68
2022/01/12 03:47:06;;;;;;;11.10;7.50;;;;;;;-7.63;73.15;98438.30;110227;1247;59696;-68
2022/01/12 03:49:41;;;;;;;19.50;11.30;;;;;;;-7.67;73.59;98437.40;110111;1248;70753;-68
2022/01/12 03:52:13;;;;;;;19.20;12.10;;;;;;;-7.72;75.65;98434.77;110224;1248;68444;-69
2022/01/12 03:54:42;;;;;;;22.30;13.50;;;;;;;-7.75;76.61;98436.08;109890;1247;70064;-68
2022/01/12 03:57:13;;;;;;;19.30;12.10;;;;;;;-7.78;77.24;98438.05;110244;1246;59681;-68
2022/01/12 03:59:42;;;;;;;13.80;8.50;;;;;;;-7.82;76.76;98440.54;109934;1248;59758;-69
2022/01/12 04:02:12;;;;;;;13.10;8.10;;;;;;;-7.84;75.51;98447.60;109939;1250;70621;-67
2022/01/12 04:04:53;;;;;;;13.20;8.50;;;;;;;-7.86;74.78;98452.48;110152;1250;67622;-69
2022/01/12 04:10:11;;;;;;;11.20;7.00;;;;;;;-7.94;74.58;98451.34;110133;1247;59787;-69
2022/01/12 04:12:42;;;;;;;6.90;5.60;;;;;;;-7.95;74.74;98451.83;110237;1247;59681;-68
2022/01/12 04:15:11;;;;;;;13.40;7.60;;;;;;;-7.97;74.45;98451.80;110139;1247;71553;-66
2022/01/12 04:17:40;;;;;;;13.50;8.30;;;;;;;-8.01;74.86;98456.13;109939;1249;67928;-67
2022/01/12 04:20:11;;;;;;;12.40;8.50;;;;;;;-8.00;74.63;98459.86;110166;1247;68685;-66
2022/01/12 04:25:28;;;;;;;15.50;9.60;;;;;;;-8.05;75.55;98465.34;110093;1247;59724;-68
2022/01/12 04:27:58;;;;;;;15.30;8.70;;;;;;;-8.06;75.34;98467.02;110073;1247;71817;-67
2022/01/12 04:30:27;;;;;;;14.70;8.50;;;;;;;-8.07;75.05;98467.02;109863;1246;68040;-65
2022/01/12 04:32:57;;;;;;;17.30;8.10;;;;;;;-8.07;74.82;98473.11;110096;1247;69453;-66
2022/01/12 04:35:33;;;;;;;11.30;7.70;;;;;;;-8.06;74.74;98476.15;109562;1250;60190;-66
2022/01/12 04:38:04;;;;;;;16.50;8.70;;;;;;;-8.06;74.73;98479.55;110106;1247;59690;-67
2022/01/12 04:40:33;;;;;;;11.80;8.70;;;;;;;-8.04;74.85;98478.41;109831;1250;70736;-69
2022/01/12 04:43:03;;;;;;;14.10;8.20;;;;;;;-8.00;74.93;98482.02;110056;1247;69335;-67
2022/01/12 04:45:40;;;;;;;14.30;8.80;;;;;;;-7.96;74.77;98478.55;110143;1247;68514;-67
2022/01/12 04:50:46;;;;;;;12.70;7.90;;;;;;;-7.88;74.86;98487.48;109903;1250;59682;-68
2022/01/12 04:53:18;;;;;;;13.90;8.60;;;;;;;-7.83;75.03;98487.05;109832;1247;71594;-66
2022/01/12 04:55:51;;;;;;;15.50;10.20;;;;;;;-7.79;75.58;98486.11;109839;1247;68548;-67
2022/01/12 04:58:22;;;;;;;17.40;10.20;;;;;;;-7.74;75.35;98492.13;109891;1249;69399;-66
2022/01/12 05:00:53;;;;;;;23.60;12.40;;;;;;;-7.68;76.04;98490.18;110036;1249;59722;-67
2022/01/12 05:09:05;;;;;;;19.20;12.70;;;;;;;-7.47;75.94;98505.59;109996;1247;68751;-67
2022/01/12 05:14:57;;;;;;;40.30;21.30;;;;;;;-7.36;75.59;98511.86;109621;1254;59736;-68
2022/01/12 05:17:26;;;;;;;42.80;24.00;;;;;;;-7.33;76.33;98514.46;109571;1253;59809;-70
2022/01/12 05:19:56;;;;;;;46.10;25.20;;;;;;;-7.31;76.71;98515.66;109945;1247;70501;-67
2022/01/12 05:22:26;;;;;;;35.30;20.00;;;;;;;-7.26;75.86;98519.65;109875;1250;68622;-67
2022/01/12 05:24:56;;;;;;;27.20;15.70;;;;;;;-7.23;75.61;98519.70;109797;1250;68700;-66
2022/01/12 05:27:30;;;;;;;16.30;10.70;;;;;;;-7.23;75.88;98515.45;110145;1249;59751;-66
2022/01/12 05:29:59;;;;;;;15.90;9.70;;;;;;;-7.20;75.27;98517.02;109943;1250;59675;-67
2022/01/12 05:32:29;;;;;;;11.20;7.80;;;;;;;-7.17;74.89;98519.94;109911;1250;70803;-66
2022/01/12 05:35:03;;;;;;;11.60;7.40;;;;;;;-7.14;74.66;98522.54;109812;1250;67847;-67
2022/01/12 05:37:33;;;;;;;10.90;7.30;;;;;;;-7.13;74.57;98520.85;109734;1250;70072;-69
2022/01/12 05:40:02;;;;;;;13.30;8.40;;;;;;;-7.10;74.39;98521.93;109976;1250;59684;-69
2022/01/12 05:42:34;;;;;;;15.20;8.90;;;;;;;-7.06;74.58;98521.98;110024;1248;59673;-68
2022/01/12 05:45:05;;;;;;;;;;;;;;;-7.04;74.58;98520.82;109616;1250;70829;-68
2022/01/12 05:50:14;;;;;;;17.30;11.20;;;;;;;-7.06;74.69;98528.77;109744;1248;69412;-67
2022/01/12 05:52:44;;;;;;;;;;;;;;;-7.07;75.59;98534.01;109841;1250;59725;-68
2022/01/12 05:55:14;;;;;;;24.60;13.40;;;;;;;-7.06;75.11;98537.23;110007;1249;59755;-67
2022/01/12 05:57:45;;;;;;;34.90;18.00;;;;;;;-7.06;74.90;98542.15;109754;1249;70849;-65
2022/01/12 06:00:17;;;;;;;33.10;20.50;;;;;;;-7.04;74.82;98542.84;109821;1250;68578;-67
2022/01/12 06:02:51;;;;;;;26.50;16.50;;;;;;;-7.03;75.24;98552.52;110158;1249;70148;-66
2022/01/12 06:05:22;;;;;;;32.30;19.20;;;;;;;-7.07;75.82;98557.53;110029;1247;59757;-65
2022/01/12 06:07:52;;;;;;;38.30;24.30;;;;;;;-7.09;75.99;98560.91;109888;1250;59733;-65
2022/01/12 06:10:23;;;;;;;47.60;26.50;;;;;;;-7.10;76.60;98561.58;109929;1250;71555;-64
2022/01/12 06:12:53;;;;;;;41.50;24.10;;;;;;;-7.11;77.28;98563.42;109855;1250;67991;-67
2022/01/12 06:15:22;;;;;;;36.90;21.20;;;;;;;-7.10;77.63;98569.88;109967;1250;68747;-65
2022/01/12 06:17:51;;;;;;;17.70;11.60;;;;;;;-7.09;77.12;98572.42;110116;1249;59678;-65
2022/01/12 06:20:21;;;;;;;23.00;14.70;;;;;;;-7.07;76.48;98572.96;110014;1249;59771;-66
2022/01/12 06:23:12;;;;;;;24.60;14.40;;;;;;;-7.05;77.45;98573.69;109797;1249;70797;-66
2022/01/12 06:25:45;;;;;;;21.50;14.10;;;;;;;-7.01;78.18;98573.05;109837;1250;68925;-65
2022/01/12 06:28:37;;;;;;;15.10;9.90;;;;;;;-6.95;77.89;98575.86;109666;1249;69698;-66
2022/01/12 06:31:17;;;;;;;14.40;9.30;;;;;;;-6.87;76.84;98581.91;109970;1247;59761;-65
2022/01/12 06:33:49;;;;;;;29.40;17.10;;;;;;;-6.80;76.20;98583.71;109788;1249;59697;-65
2022/01/12 06:36:22;;;;;;;30.50;19.30;;;;;;;-6.76;76.71;98586.98;109804;1250;71625;-65
2022/01/12 06:38:51;;;;;;;26.20;16.10;;;;;;;-6.70;77.30;98591.83;109699;1250;67790;-67
2022/01/12 06:41:20;;;;;;;24.30;14.90;;;;;;;-6.65;77.36;98595.63;109835;1249;68673;-64
2022/01/12 06:43:52;;;;;;;19.10;11.20;;;;;;;-6.56;77.68;98594.56;109996;1250;59688;-67
2022/01/12 06:46:26;;;;;;;23.40;12.00;;;;;;;-6.45;76.46;98595.58;109932;1250;59704;-66
2022/01/12 06:48:55;;;;;;;20.40;10.70;;;;;;;-6.35;76.06;98593.48;109861;1250;71503;-66
2022/01/12 06:51:25;;;;;;;21.40;13.20;;;;;;;-6.29;75.78;98595.45;109927;1249;68623;-67
2022/01/12 06:53:55;;;;;;;19.80;11.00;;;;;;;-6.24;75.60;98597.88;110000;1249;69385;-67
2022/01/12 06:56:25;;;;;;;57.40;31.20;;;;;;;-6.21;75.30;98602.33;110066;1249;59753;-65
2022/01/12 06:58:56;;;;;;;48.90;26.80;;;;;;;-6.19;75.22;98600.84;110029;1250;59769;-66
2022/01/12 07:01:27;;;;;;;45.50;28.70;;;;;;;-6.16;75.25;98604.60;109924;1250;70382;-66
2022/01/12 07:03:56;;;;;;;37.00;21.20;;;;;;;-6.12;75.98;98608.38;109657;1249;67867;-65
2022/01/12 07:06:25;;;;;;;33.00;19.80;;;;;;;-6.04;75.49;98615.77;109623;1250;69502;-65
2022/01/12 07:08:56;;;;;;;39.20;24.60;;;;;;;-5.95;75.13;98620.30;109652;1250;59716;-66
2022/01/12 07:11:48;;;;;;;59.60;33.40;;;;;;;-5.83;75.03;98617.86;109884;1250;59673;-68
2022/01/12 07:14:21;;;;;;;58.50;35.50;;;;;;;-5.77;75.18;98621.67;109746;1250;71986;-69
2022/01/12 07:16:50;;;;;;;46.10;28.10;;;;;;;-5.71;75.13;98624.29;109927;1250;67952;-65
2022/01/12 07:19:19;;;;;;;30.90;19.80;;;;;;;-5.51;75.27;98625.17;109772;1250;69345;-65
2022/01/12 07:21:49;;;;;;;59.70;36.00;;;;;;;-4.94;75.10;98630.62;109855;1250;59759;-65
2022/01/12 07:24:18;;;;;;;43.10;26.10;;;;;;;-4.49;71.72;98628.25;110066;1250;59714;-67
2022/01/12 07:26:48;;;;;;;34.10;19.00;;;;;;;-4.33;71.82;98622.04;109904;1250;70750;-67
2022/01/12 07:29:17;;;;;;;41.00;21.70;;;;;;;-4.16;70.85;98619.58;109999;1250;67618;-68
2022/01/12 07:31:46;;;;;;;26.90;17.90;;;;;;;-3.77;71.13;98621.62;109922;1249;68900;-68
2022/01/12 07:34:15;;;;;;;32.50;17.20;;;;;;;-2.94;70.17;98625.86;110003;1249;59714;-66
2022/01/12 07:36:45;;;;;;;29.80;18.80;;;;;;;-2.03;67.71;98627.10;110018;1249;59683;-66
2022/01/12 07:39:13;;;;;;;30.40;18.60;;;;;;;-1.17;65.59;98628.23;109760;1250;71564;-67
2022/01/12 07:41:44;;;;;;;26.00;16.00;;;;;;;-0.31;63.55;98623.92;109827;1249;68798;-67
2022/01/12 07:44:13;;;;;;;23.00;16.10;;;;;;;0.58;60.71;98628.20;109877;1248;69482;-67
2022/01/12 07:46:42;;;;;;;19.50;12.70;;;;;;;1.44;57.60;98636.17;109743;1250;59728;-66
2022/01/12 07:49:12;;;;;;;18.80;12.90;;;;;;;2.12;57.69;98635.64;109880;1249;59686;-69
2022/01/12 07:51:41;;;;;;;;;;;;;;;2.81;55.50;98639.70;109911;1248;70798;-67
2022/01/12 07:54:10;;;;;;;15.00;10.40;;;;;;;3.29;54.24;98642.58;109740;1250;69184;-67
2022/01/12 07:56:39;;;;;;;15.10;10.10;;;;;;;3.65;49.19;98643.41;109821;1250;69381;-69
2022/01/12 07:59:08;;;;;;;15.30;10.80;;;;;;;4.05;50.54;98648.73;110078;1248;59682;-69
2022/01/12 08:01:38;;;;;;;22.30;13.60;;;;;;;4.54;49.44;98653.09;109954;1250;59689;-68
2022/01/12 08:04:07;;;;;;;12.70;8.80;;;;;;;5.03;48.24;98661.48;109727;1249;71507;-65
2022/01/12 08:06:36;;;;;;;20.30;13.60;;;;;;;5.34;44.20;98663.29;110022;1248;69486;-67
2022/01/12 08:09:07;;;;;;;14.60;10.10;;;;;;;5.56;43.04;98663.92;109866;1250;68930;-66
2022/01/12 08:11:36;;;;;;;15.20;10.80;;;;;;;5.69;40.39;98662.65;109887;1250;59737;-65
2022/01/12 08:14:04;;;;;;;13.90;10.00;;;;;;;5.99;40.37;98658.90;109890;1250;59696;-67
2022/01/12 08:16:34;;;;;;;14.50;10.80;;;;;;;6.33;40.14;98657.36;109925;1249;72238;-70
2022/01/12 08:19:03;;;;;;;9.90;7.40;;;;;;;6.44;37.32;98656.45;110020;1250;69186;-67
2022/01/12 08:21:32;;;;;;;10.10;6.70;;;;;;;6.63;37.47;98660.77;109939;1248;70138;-67
2022/01/12 08:24:01;;;;;;;10.70;6.40;;;;;;;6.79;36.05;98662.63;109827;1250;59715;-68
2022/01/12 08:26:33;;;;;;;10.70;6.00;;;;;;;6.87;34.70;98664.23;110079;1250;59695;-67
2022/01/12 08:29:02;;;;;;;7.40;5.00;;;;;;;7.01;36.18;98663.83;110095;1250;71639;-69
2022/01/12 08:31:31;;;;;;;6.10;4.20;;;;;;;7.12;35.47;98665.83;110055;1250;68635;-69
2022/01/12 08:34:00;;;;;;;8.70;5.60;;;;;;;7.27;32.87;98660.24;109946;1250;68654;-66
2022/01/12 08:36:29;;;;;;;7.00;5.30;;;;;;;7.36;31.15;98663.33;109992;1250;59677;-69
2022/01/12 08:38:59;;;;;;;11.30;7.10;;;;;;;7.35;32.13;98666.14;110101;1249;59753;-69
2022/01/12 08:41:28;;;;;;;9.70;5.50;;;;;;;7.14;30.22;98666.95;109839;1250;70787;-70
2022/01/12 08:43:57;;;;;;;7.20;5.30;;;;;;;6.93;30.94;98670.39;109987;1250;68580;-67
2022/01/12 08:46:26;;;;;;;8.00;4.60;;;;;;;6.87;30.97;98672.33;109996;1248;69354;-68
2022/01/12 08:48:55;;;;;;;7.70;5.60;;;;;;;6.68;29.82;98669.80;109993;1250;59717;-74
2022/01/12 08:51:25;;;;;;;9.30;5.60;;;;;;;6.42;29.75;98667.08;109970;1249;59761;-70
2022/01/12 08:53:54;;;;;;;7.70;5.60;;;;;;;6.38;30.55;98671.05;109928;1249;71648;-71
2022/01/12 08:56:22;;;;;;;9.20;6.00;;;;;;;6.45;30.20;98668.86;110090;1249;68567;-70
2022/01/12 08:58:52;;;;;;;9.30;6.10;;;;;;;6.62;29.63;98673.27;109986;1249;69243;-71
2022/01/12 09:01:26;;;;;;;10.00;6.10;;;;;;;6.60;29.79;98672.81;109978;1250;59670;-66
2022/01/12 09:03:55;;;;;;;7.60;5.50;;;;;;;6.54;29.82;98673.40;109881;1250;59812;-71
2022/01/12 09:06:24;;;;;;;8.20;6.30;;;;;;;6.97;29.07;98675.41;109975;1250;71483;-68
2022/01/12 09:08:53;;;;;;;9.90;6.90;;;;;;;6.93;28.44;98673.31;109952;1249;69220;-70
2022/01/12 09:11:22;;;;;;;8.60;6.10;;;;;;;6.78;28.44;98676.14;109965;1250;69466;-67
2022/01/12 09:13:51;;;;;;;7.20;5.10;;;;;;;6.85;28.55;98665.66;109763;1250;252716;-72
2022/01/12 09:16:20;;;;;;;9.30;5.90;;;;;;;6.98;28.61;98668.81;110023;1250;59694;-69
2022/01/12 09:18:50;;;;;;;8.70;6.10;;;;;;;7.18;27.80;98670.64;110010;1250;71532;-68
2022/01/12 09:21:19;;;;;;;7.10;5.50;;;;;;;7.58;27.37;98672.70;109922;1250;68432;-71
2022/01/12 09:23:49;;;;;;;10.10;5.10;;;;;;;7.97;27.36;98673.14;110061;1249;69481;-72
2022/01/12 09:26:17;;;;;;;10.00;6.50;;;;;;;8.35;27.20;98677.80;110006;1250;59753;-68
2022/01/12 09:28:48;;;;;;;6.90;5.00;;;;;;;8.63;26.27;98676.89;110059;1249;59679;-68
2022/01/12 09:31:17;;;;;;;8.90;5.50;;;;;;;9.34;26.35;98677.44;110044;1250;72174;-71
2022/01/12 09:33:49;;;;;;;6.60;4.80;;;;;;;10.13;27.05;98666.08;110188;1250;67691;-66
2022/01/12 09:36:18;;;;;;;9.50;5.50;;;;;;;11.05;25.76;98662.45;110098;1247;68670;-70
2022/01/12 09:38:49;;;;;;;10.80;6.20;;;;;;;11.49;22.32;98661.20;110174;1247;59684;-72
2022/01/12 09:41:18;;;;;;;10.30;6.00;;;;;;;11.12;22.81;98661.53;110116;1247;59729;-67
2022/01/12 09:43:51;;;;;;;7.70;5.50;;;;;;;10.03;22.55;98659.10;110170;1249;71490;-68
2022/01/12 09:46:24;;;;;;;8.10;5.10;;;;;;;10.11;23.96;98658.66;110157;1249;68668;-70
2022/01/12 09:48:54;;;;;;;8.00;5.70;;;;;;;10.77;24.70;98663.61;110169;1249;69875;-71
2022/01/12 09:51:23;;;;;;;6.80;4.20;;;;;;;11.14;24.16;98661.78;110140;1248;60105;-70
2022/01/12 09:53:52;;;;;;;5.90;4.70;;;;;;;11.96;24.21;98659.77;110036;1250;59869;-73
2022/01/12 09:56:24;;;;;;;6.30;4.50;;;;;;;12.61;22.45;98655.13;110017;1249;71611;-70
2022/01/12 09:58:58;;;;;;;7.10;4.90;;;;;;;13.33;22.61;98657.84;109997;1250;68800;-71
2022/01/12 10:01:33;;;;;;;8.10;5.90;;;;;;;14.02;21.37;98653.46;110126;1247;68907;-72
2022/01/12 10:04:15;;;;;;;7.30;5.30;;;;;;;14.41;20.97;98655.56;110044;1250;59735;-72
2022/01/12 10:06:48;;;;;;;8.40;6.10;;;;;;;14.97;22.60;98651.86;110156;1249;59740;-72
2022/01/12 10:09:23;;;;;;;7.90;5.40;;;;;;;15.55;20.07;98655.92;110110;1248;71583;-71
2022/01/12 10:11:58;;;;;;;8.00;5.80;;;;;;;16.02;20.55;98657.42;109983;1250;68596;-71
2022/01/12 10:14:45;;;;;;;8.90;5.90;;;;;;;16.40;20.82;98650.57;109995;1248;70050;-71
2022/01/12 10:17:14;;;;;;;8.00;4.90;;;;;;;16.79;20.44;98656.40;110189;1247;59681;-71
2022/01/12 10:19:43;;;;;;;6.80;5.20;;;;;;;17.03;20.38;98659.23;110179;1247;59681;-72
2022/01/12 10:22:15;;;;;;;7.70;5.80;;;;;;;16.91;17.30;98658.25;110185;1247;71639;-68
2022/01/12 10:24:46;;;;;;;10.30;6.80;;;;;;;16.48;17.10;98650.36;110209;1246;69122;-71
2022/01/12 10:27:18;;;;;;;7.10;5.30;;;;;;;16.35;19.23;98652.94;110123;1247;69818;-72
2022/01/12 10:29:57;;;;;;;6.90;5.10;;;;;;;16.56;17.88;98647.94;110135;1249;59761;-68
2022/01/12 10:32:26;;;;;;;10.00;6.60;;;;;;;16.69;18.34;98648.17;110143;1247;59822;-70
2022/01/12 10:34:57;;;;;;;10.60;6.10;;;;;;;16.62;17.05;98641.00;110146;1249;71638;-72
2022/01/12 10:37:26;;;;;;;9.00;6.70;;;;;;;16.25;17.36;98644.02;110166;1249;68625;-68
2022/01/12 10:39:56;;;;;;;10.70;7.40;;;;;;;16.05;17.64;98646.90;110186;1250;69417;-72
2022/01/12 10:42:27;;;;;;;8.30;6.10;;;;;;;15.80;18.17;98643.86;110198;1248;59747;-71
2022/01/12 10:45:03;;;;;;;10.40;6.20;;;;;;;15.73;17.75;98643.88;110156;1247;59700;-73
2022/01/12 10:47:33;;;;;;;8.50;6.30;;;;;;;15.28;18.19;98644.19;110208;1247;72097;-68
2022/01/12 10:50:06;;;;;;;7.80;5.40;;;;;;;15.44;18.80;98645.30;110165;1248;69053;-72
2022/01/12 10:52:39;;;;;;;8.40;6.00;;;;;;;15.87;18.50;98643.89;110171;1249;69826;-73
2022/01/12 10:55:11;;;;;;;10.50;7.50;;;;;;;15.73;16.52;98643.84;110312;1247;59760;-70
2022/01/12 10:57:44;;;;;;;9.50;6.60;;;;;;;14.48;17.34;98642.25;110134;1250;59682;-69
2022/01/12 11:00:18;;;;;;;11.40;7.10;;;;;;;14.12;18.25;98637.58;110138;1248;72113;-72
2022/01/12 11:02:50;;;;;;;9.80;7.10;;;;;;;13.87;18.46;98638.69;110116;1248;69148;-70
2022/01/12 11:05:21;;;;;;;10.90;7.10;;;;;;;14.41;18.93;98635.09;110140;1248;69482;-71
2022/01/12 11:07:52;;;;;;;8.30;5.90;;;;;;;14.93;18.61;98631.45;110006;1250;59671;-68
2022/01/12 11:10:22;;;;;;;8.80;5.90;;;;;;;15.52;18.60;98627.27;109932;1248;59680;-68
2022/01/12 11:12:51;;;;;;;8.50;5.70;;;;;;;16.12;18.15;98629.89;110009;1250;72396;-67
2022/01/12 11:15:21;;;;;;;11.10;7.40;;;;;;;16.78;18.29;98624.63;110148;1247;69366;-68
2022/01/12 11:17:52;;;;;;;8.40;6.20;;;;;;;17.38;18.66;98628.63;110041;1248;68639;-69
2022/01/12 11:20:30;;;;;;;10.40;7.20;;;;;;;18.01;18.67;98623.23;110016;1250;59753;-67
2022/01/12 11:23:12;;;;;;;8.70;6.50;;;;;;;18.61;18.81;98622.19;110117;1247;59764;-66
2022/01/12 11:25:44;;;;;;;7.50;5.80;;;;;;;19.18;17.78;98623.21;109985;1248;71175;-69
2022/01/12 11:28:22;;;;;;;10.50;7.20;;;;;;;19.55;17.38;98622.00;110109;1249;68725;-66
2022/01/12 11:30:51;;;;;;;9.00;7.10;;;;;;;19.70;17.68;98620.42;110038;1250;69518;-67
2022/01/12 11:33:34;;;;;;;10.40;6.90;;;;;;;19.83;16.57;98622.09;110053;1248;59754;-67
2022/01/12 11:36:05;;;;;;;12.20;8.10;;;;;;;19.70;15.17;98618.93;110143;1249;59666;-70
2022/01/12 11:38:36;;;;;;;12.20;8.40;;;;;;;19.54;15.52;98623.35;110098;1250;71494;-69
2022/01/12 11:41:28;;;;;;;8.70;6.70;;;;;;;19.18;16.42;98624.46;110064;1250;68645;-68
2022/01/12 11:44:22;;;;;;;9.10;7.00;;;;;;;19.18;16.17;98625.35;109887;1250;69896;-66
2022/01/12 11:47:01;;;;;;;8.20;6.10;;;;;;;19.28;16.57;98623.56;110058;1250;59763;-67
2022/01/12 11:49:34;;;;;;;11.30;7.10;;;;;;;19.59;16.66;98623.91;110083;1248;59685;-69
2022/01/12 11:52:28;;;;;;;11.70;8.10;;;;;;;19.76;15.88;98620.13;110057;1247;71005;-68
2022/01/12 11:55:15;;;;;;;9.90;7.00;;;;;;;18.99;14.84;98616.00;110073;1250;69191;-71
2022/01/12 11:57:54;;;;;;;7.70;5.80;;;;;;;18.73;16.56;98618.53;110047;1245;68672;-67
2022/01/12 12:00:27;;;;;;;;;;;;;;;18.56;14.96;98616.74;110125;1249;59754;-73
2022/01/12 12:02:58;;;;;;;12.10;8.30;;;;;;;18.31;16.36;98614.86;110124;1248;59640;-69
2022/01/12 12:05:29;;;;;;;11.20;8.20;;;;;;;18.23;16.31;98618.67;110132;1249;71574;-68
2022/01/12 12:08:04;;;;;;;10.90;7.00;;;;;;;17.81;16.17;98618.73;110161;1247;68983;-71
2022/01/12 12:10:40;;;;;;;8.50;6.40;;;;;;;17.98;17.27;98619.39;110010;1249;70051;-72
2022/01/12 12:13:11;;;;;;;9.20;6.70;;;;;;;18.34;17.74;98617.64;109921;1249;60202;-71
2022/01/12 12:15:42;;;;;;;8.90;6.60;;;;;;;18.73;17.12;98616.54;110109;1249;59695;-75
2022/01/12 12:18:11;;;;;;;10.50;6.90;;;;;;;18.93;16.75;98612.85;110167;1247;71691;-74
2022/01/12 12:20:41;;;;;;;10.40;7.60;;;;;;;18.92;16.27;98615.08;110123;1249;68738;-72
2022/01/12 12:23:10;;;;;;;7.40;6.00;;;;;;;18.70;15.76;98616.40;110019;1250;68200;-69
2022/01/12 12:25:39;;;;;;;9.00;6.80;;;;;;;18.93;16.81;98612.37;110062;1250;59655;-68
2022/01/12 12:28:09;;;;;;;8.80;6.50;;;;;;;19.00;16.37;98610.14;110075;1248;59752;-68
2022/01/12 12:30:40;;;;;;;9.10;7.40;;;;;;;18.70;15.36;98612.60;110116;1247;71531;-69
2022/01/12 12:33:15;;;;;;;9.60;6.50;;;;;;;18.41;16.54;98613.67;110101;1250;69007;-68
2022/01/12 12:35:44;;;;;;;8.60;5.80;;;;;;;18.66;16.70;98617.01;110074;1250;68473;-71
2022/01/12 12:38:16;;;;;;;14.10;10.00;;;;;;;18.73;15.82;98614.73;110060;1247;59774;-68
2022/01/12 12:40:48;;;;;;;11.80;9.70;;;;;;;18.06;15.48;98615.58;110096;1250;59694;-70
2022/01/12 12:43:22;;;;;;;8.10;6.80;;;;;;;17.42;15.98;98621.42;110176;1250;71606;-67
2022/01/12 12:45:54;;;;;;;9.90;7.20;;;;;;;17.58;16.66;98627.27;110117;1249;67813;-69
2022/01/12 12:48:34;;;;;;;12.50;8.80;;;;;;;17.33;16.07;98622.27;110142;1247;69436;-73
2022/01/12 12:51:04;;;;;;;13.00;9.20;;;;;;;17.31;16.96;98622.16;110098;1249;59764;-69
2022/01/12 12:53:39;;;;;;;34.50;20.40;;;;;;;17.63;16.96;98617.94;110104;1250;59681;-73
2022/01/12 12:56:16;;;;;;;13.50;9.20;;;;;;;17.84;16.50;98617.59;109922;1250;71523;-73
2022/01/12 12:58:52;;;;;;;10.50;7.80;;;;;;;17.18;15.43;98621.41;109985;1250;68509;-74
2022/01/12 13:01:26;;;;;;;9.30;7.10;;;;;;;16.83;16.28;98624.92;110165;1247;67984;-70